createdAt,value
2018-11-23T00:00:24.504Z,19.77
2018-11-23T00:02:53.329Z,19.80
2018-11-23T00:05:22.303Z,22.33
2018-11-23T00:07:51.607Z,22.00
2018-11-23T00:10:21.627Z,18.83
2018-11-23T00:12:50.205Z,20.30
2018-11-23T00:15:20.046Z,20.93
2018-11-23T00:17:48.616Z,20.17
2018-11-23T00:20:19.541Z,22.10
2018-11-23T00:22:48.066Z,20.50
2018-11-23T00:25:17.837Z,20.77
2018-11-23T00:27:46.386Z,21.30
2018-11-23T00:30:17.694Z,22.43
2018-11-23T00:32:46.662Z,21.43
2018-11-23T00:35:17.029Z,19.73
2018-11-23T00:37:46.077Z,21.50
2018-11-23T00:40:23.447Z,20.43
2018-11-23T00:42:52.389Z,20.30
2018-11-23T00:45:20.989Z,19.70
2018-11-23T00:47:50.386Z,21.70
2018-11-23T00:50:20.296Z,18.97
2018-11-23T00:52:49.307Z,20.43
2018-11-23T00:55:19.239Z,20.93
2018-11-23T00:57:47.916Z,18.97
2018-11-23T01:00:23.217Z,20.00
2018-11-23T01:02:52.306Z,18.90
2018-11-23T01:05:21.087Z,19.77
2018-11-23T01:07:50.102Z,20.53
2018-11-23T01:10:19.957Z,19.43
2018-11-23T01:12:49.632Z,19.30
2018-11-23T01:15:18.308Z,19.43
2018-11-23T01:17:46.851Z,21.10
2018-11-23T01:20:19.435Z,18.33
2018-11-23T01:22:48.761Z,17.53
2018-11-23T01:25:18.693Z,21.30
2018-11-23T01:27:48.403Z,19.10
2018-11-23T01:30:20.353Z,19.83
2018-11-23T01:32:49.014Z,18.77
2018-11-23T01:35:17.653Z,20.23
2018-11-23T01:37:46.211Z,21.97
2018-11-23T01:40:16.557Z,18.67
2018-11-23T01:42:45.539Z,19.90
2018-11-23T01:45:14.625Z,20.03
2018-11-23T01:47:43.451Z,19.10
2018-11-23T01:50:15.242Z,20.77
2018-11-23T01:52:44.887Z,19.80
2018-11-23T01:55:14.203Z,20.97
2018-11-23T01:57:44.029Z,19.03
2018-11-23T02:00:15.901Z,18.77
2018-11-23T02:02:44.962Z,18.33
2018-11-23T02:05:13.593Z,20.97
2018-11-23T02:07:42.857Z,23.43
2018-11-23T02:10:12.886Z,21.13
2018-11-23T02:12:41.519Z,21.30
2018-11-23T02:15:12.614Z,23.67
2018-11-23T02:17:42.115Z,20.80
2018-11-23T02:20:12.251Z,24.77
2018-11-23T02:22:40.869Z,19.97
2018-11-23T02:25:09.371Z,19.73
2018-11-23T02:27:37.983Z,19.77
2018-11-23T02:30:13.588Z,19.47
2018-11-23T02:32:42.618Z,20.33
2018-11-23T02:35:11.415Z,18.67
2018-11-23T02:37:40.205Z,20.37
2018-11-23T02:40:10.177Z,20.60
2018-11-23T02:42:39.054Z,20.50
2018-11-23T02:45:12.174Z,22.63
2018-11-23T02:47:41.398Z,20.63
2018-11-23T02:50:10.389Z,22.33
2018-11-23T02:52:39.718Z,20.33
2018-11-23T02:55:09.428Z,24.43
2018-11-23T02:57:38.215Z,21.30
2018-11-23T03:00:09.095Z,22.17
2018-11-23T03:02:37.623Z,19.73
2018-11-23T03:05:07.140Z,21.63
2018-11-23T03:07:35.694Z,19.60
2018-11-23T03:10:04.268Z,22.40
2018-11-23T03:12:32.850Z,21.30
2018-11-23T03:15:01.353Z,21.10
2018-11-23T03:17:29.879Z,21.20
2018-11-23T03:19:58.418Z,20.30
2018-11-23T03:22:26.919Z,20.67
2018-11-23T03:24:55.452Z,20.53
2018-11-23T03:27:23.980Z,18.80
2018-11-23T03:29:52.501Z,21.20
2018-11-23T03:32:21.089Z,21.27
2018-11-23T03:34:51.362Z,18.13
2018-11-23T03:37:19.882Z,19.13
2018-11-23T03:39:48.442Z,20.40
2018-11-23T03:42:16.971Z,19.93
2018-11-23T03:44:45.569Z,20.70
2018-11-23T03:47:14.105Z,19.97
2018-11-23T03:49:42.665Z,21.60
2018-11-23T03:52:11.187Z,22.47
2018-11-23T03:54:39.805Z,22.07
2018-11-23T03:57:08.771Z,20.30
2018-11-23T03:59:37.328Z,19.20
2018-11-23T04:02:06.262Z,20.67
2018-11-23T04:04:34.933Z,20.43
2018-11-23T04:07:03.469Z,20.67
2018-11-23T04:09:32.030Z,19.40
2018-11-23T04:12:00.581Z,22.63
2018-11-23T04:14:29.183Z,20.87
2018-11-23T04:16:57.697Z,22.83
2018-11-23T04:19:26.200Z,22.10
2018-11-23T04:21:54.750Z,20.83
2018-11-23T04:24:23.321Z,22.27
2018-11-23T04:26:52.147Z,20.97
2018-11-23T04:29:20.650Z,21.73
2018-11-23T04:31:49.173Z,21.13
2018-11-23T04:34:17.705Z,21.37
2018-11-23T04:36:46.497Z,20.47
2018-11-23T04:39:15.047Z,21.17
2018-11-23T04:41:46.540Z,22.93
2018-11-23T04:44:12.136Z,19.67
2018-11-23T04:46:40.664Z,23.80
2018-11-23T04:49:09.181Z,23.80
2018-11-23T04:51:37.689Z,21.23
2018-11-23T04:54:06.393Z,20.90
2018-11-23T04:56:34.958Z,19.63
2018-11-23T04:59:03.536Z,23.17
2018-11-23T05:01:32.123Z,22.13
2018-11-23T05:04:00.668Z,22.23
2018-11-23T05:06:29.403Z,21.27
2018-11-23T05:08:57.921Z,22.33
2018-11-23T05:11:26.429Z,23.87
2018-11-23T05:13:55.067Z,22.73
2018-11-23T05:16:23.596Z,20.70
2018-11-23T05:18:52.743Z,22.80
2018-11-23T05:21:21.253Z,23.93
2018-11-23T05:23:49.774Z,21.17
2018-11-23T05:26:18.297Z,19.83
2018-11-23T05:28:46.804Z,24.63
2018-11-23T05:31:15.367Z,23.93
2018-11-23T05:33:44.000Z,23.97
2018-11-23T05:36:12.638Z,23.77
2018-11-23T05:38:41.208Z,23.60
2018-11-23T05:41:09.755Z,22.07
2018-11-23T05:43:38.382Z,21.17
2018-11-23T05:46:06.911Z,22.67
2018-11-23T05:48:35.414Z,24.13
2018-11-23T05:51:04.005Z,23.60
2018-11-23T05:53:32.671Z,24.13
2018-11-23T05:56:01.409Z,22.57
2018-11-23T05:58:29.956Z,23.27
2018-11-23T06:00:58.482Z,24.00
2018-11-23T06:03:33.753Z,22.37
2018-11-23T06:06:02.332Z,22.47
2018-11-23T06:08:30.850Z,24.03
2018-11-23T06:10:59.405Z,22.33
2018-11-23T06:13:27.998Z,24.43
2018-11-23T06:15:56.778Z,20.33
2018-11-23T06:18:25.317Z,22.67
2018-11-23T06:20:53.883Z,24.27
2018-11-23T06:23:22.404Z,23.47
2018-11-23T06:25:55.779Z,20.90
2018-11-23T06:28:24.383Z,24.90
2018-11-23T06:30:53.248Z,23.00
2018-11-23T06:33:33.168Z,25.20
2018-11-23T06:36:01.832Z,23.43
2018-11-23T06:38:30.520Z,24.10
2018-11-23T06:40:59.433Z,23.00
2018-11-23T06:43:27.948Z,22.03
2018-11-23T06:45:57.385Z,25.17
2018-11-23T06:48:25.910Z,23.50
2018-11-23T06:50:55.035Z,26.63
2018-11-23T06:53:23.558Z,24.27
2018-11-23T06:55:52.439Z,24.83
2018-11-23T06:58:21.002Z,25.33
2018-11-23T07:00:49.524Z,23.87
2018-11-23T07:03:18.078Z,24.47
2018-11-23T07:05:46.611Z,27.03
2018-11-23T07:08:15.114Z,25.70
2018-11-23T07:10:43.620Z,27.60
2018-11-23T07:13:12.196Z,23.13
2018-11-23T07:15:41.018Z,24.63
2018-11-23T07:18:09.579Z,24.30
2018-11-23T07:20:38.101Z,24.43
2018-11-23T07:23:06.934Z,22.10
2018-11-23T07:25:35.530Z,25.90
2018-11-23T07:28:04.131Z,24.17
2018-11-23T07:30:32.697Z,21.60
2018-11-23T07:33:01.411Z,25.57
2018-11-23T07:35:30.050Z,22.70
2018-11-23T07:37:58.570Z,19.90
2018-11-23T07:40:41.183Z,22.03
2018-11-23T07:43:09.805Z,23.47
2018-11-23T07:45:38.469Z,26.13
2018-11-23T07:48:07.757Z,21.67
2018-11-23T07:50:36.263Z,21.90
2018-11-23T07:53:05.160Z,25.07
2018-11-23T07:55:33.713Z,24.37
2018-11-23T07:58:02.398Z,21.70
2018-11-23T08:00:30.950Z,23.10
2018-11-23T08:02:59.490Z,25.97
2018-11-23T08:05:34.739Z,22.10
2018-11-23T08:08:03.378Z,19.87
2018-11-23T08:10:31.064Z,23.53
2018-11-23T08:12:59.600Z,22.17
2018-11-23T08:15:28.722Z,23.27
2018-11-23T08:17:57.333Z,24.67
2018-11-23T08:20:26.527Z,23.27
2018-11-23T08:22:55.295Z,24.93
2018-11-23T08:25:24.901Z,24.03
2018-11-23T08:27:54.913Z,23.97
2018-11-23T08:30:24.881Z,23.87
2018-11-23T08:32:54.488Z,25.77
2018-11-23T08:35:23.051Z,25.27
2018-11-23T08:37:51.630Z,26.07
2018-11-23T08:40:22.261Z,23.47
2018-11-23T08:42:51.980Z,23.13
2018-11-23T08:45:22.998Z,23.30
2018-11-23T08:47:51.786Z,22.97
2018-11-23T08:50:23.668Z,24.13
2018-11-23T08:52:52.594Z,22.73
2018-11-23T08:55:21.768Z,24.57
2018-11-23T08:57:50.318Z,26.50
2018-11-23T09:00:23.967Z,24.37
2018-11-23T09:02:55.220Z,24.37
2018-11-23T09:05:24.169Z,23.33
2018-11-23T09:07:54.088Z,22.70
2018-11-23T09:10:26.187Z,23.57
2018-11-23T09:12:56.790Z,25.57
2018-11-23T09:15:25.521Z,25.17
2018-11-23T09:17:54.276Z,22.47
2018-11-23T09:20:22.825Z,22.70
2018-11-23T09:22:51.383Z,24.00
2018-11-23T09:25:21.338Z,22.27
2018-11-23T09:27:49.933Z,22.47
2018-11-23T09:30:20.979Z,24.43
2018-11-23T09:32:50.264Z,26.60
2018-11-23T09:35:18.832Z,23.23
2018-11-23T09:37:47.872Z,22.97
2018-11-23T09:40:20.008Z,22.27
2018-11-23T09:42:49.029Z,22.80
2018-11-23T09:45:18.983Z,22.63
2018-11-23T09:47:48.632Z,24.43
2018-11-23T09:50:18.656Z,24.03
2018-11-23T09:52:48.357Z,22.83
2018-11-23T09:55:17.262Z,24.77
2018-11-23T09:57:45.818Z,25.20
2018-11-23T10:00:17.697Z,23.33
2018-11-23T10:02:47.284Z,23.30
2018-11-23T10:05:16.515Z,28.47
2018-11-23T10:07:46.468Z,25.83
2018-11-23T10:10:16.034Z,24.20
2018-11-23T10:12:44.759Z,23.87
2018-11-23T10:15:14.858Z,24.57
2018-11-23T10:17:43.647Z,24.27
2018-11-23T10:20:14.390Z,24.97
2018-11-23T10:22:43.347Z,24.43
2018-11-23T10:25:13.477Z,24.77
2018-11-23T10:27:42.696Z,24.07
2018-11-23T10:30:15.234Z,26.53
2018-11-23T10:32:44.517Z,23.37
2018-11-23T10:35:13.143Z,23.83
2018-11-23T10:37:42.481Z,22.83
2018-11-23T10:40:13.504Z,24.30
2018-11-23T10:42:42.281Z,23.37
2018-11-23T10:45:17.726Z,25.70
2018-11-23T10:47:46.772Z,24.37
2018-11-23T10:50:17.202Z,23.90
2018-11-23T10:52:45.942Z,25.30
2018-11-23T10:55:16.870Z,25.67
2018-11-23T10:57:45.603Z,25.40
2018-11-23T11:00:21.370Z,25.93
2018-11-23T11:02:56.089Z,24.57
2018-11-23T11:05:30.968Z,27.70
2018-11-23T11:08:01.764Z,26.73
2018-11-23T11:10:30.416Z,24.87
2018-11-23T11:12:59.102Z,28.80
2018-11-23T11:15:27.818Z,29.13
2018-11-23T11:17:56.352Z,24.30
2018-11-23T11:20:24.993Z,25.33
2018-11-23T11:22:53.922Z,31.37
2018-11-23T11:25:22.491Z,28.23
2018-11-23T11:27:51.016Z,26.87
2018-11-23T11:30:19.920Z,28.53
2018-11-23T11:32:49.006Z,30.00
2018-11-23T11:35:17.638Z,27.73
2018-11-23T11:37:46.387Z,26.73
2018-11-23T11:40:16.597Z,29.00
2018-11-23T11:42:45.579Z,28.47
2018-11-23T11:45:15.600Z,28.47
2018-11-23T11:47:44.740Z,27.30
2018-11-23T11:50:14.047Z,26.93
2018-11-23T11:52:44.061Z,30.97
2018-11-23T11:55:14.657Z,36.10
2018-11-23T11:57:43.852Z,29.30
2018-11-23T12:00:17.842Z,31.60
2018-11-23T12:02:46.912Z,29.53
2018-11-23T12:05:15.640Z,32.30
2018-11-23T12:07:44.232Z,29.33
2018-11-23T12:10:15.524Z,31.60
2018-11-23T12:12:44.068Z,31.93
2018-11-23T12:15:13.483Z,31.67
2018-11-23T12:17:42.358Z,32.30
2018-11-23T12:20:13.733Z,32.03
2018-11-23T12:22:42.491Z,32.47
2018-11-23T12:25:11.377Z,33.30
2018-11-23T12:27:39.908Z,34.53
2018-11-23T12:30:10.377Z,30.03
2018-11-23T12:32:38.930Z,33.00
2018-11-23T12:35:08.978Z,35.10
2018-11-23T12:37:37.587Z,34.73
2018-11-23T12:40:07.924Z,29.53
2018-11-23T12:42:36.531Z,29.90
2018-11-23T12:45:06.745Z,32.70
2018-11-23T12:47:35.259Z,34.17
2018-11-23T12:50:04.228Z,35.13
2018-11-23T12:52:32.772Z,35.00
2018-11-23T12:55:01.307Z,37.23
2018-11-23T12:57:29.840Z,32.07
2018-11-23T12:59:58.386Z,34.20
2018-11-23T13:02:26.918Z,33.47
2018-11-23T13:04:55.702Z,34.23
2018-11-23T13:07:24.425Z,35.60
2018-11-23T13:09:52.943Z,35.43
2018-11-23T13:12:21.450Z,37.37
2018-11-23T13:14:49.972Z,37.07
2018-11-23T13:17:18.589Z,36.00
2018-11-23T13:19:47.312Z,37.40
2018-11-23T13:22:15.901Z,35.90
2018-11-23T13:24:44.466Z,37.10
2018-11-23T13:27:15.421Z,38.27
2018-11-23T13:29:44.833Z,35.97
2018-11-23T13:32:13.382Z,37.77
2018-11-23T13:34:44.778Z,37.30
2018-11-23T13:37:13.547Z,35.37
2018-11-23T13:39:42.553Z,39.30
2018-11-23T13:42:11.242Z,38.50
2018-11-23T13:44:39.853Z,35.17
2018-11-23T13:47:08.399Z,39.40
2018-11-23T13:49:36.940Z,37.50
2018-11-23T13:52:05.634Z,40.23
2018-11-23T13:54:34.180Z,38.90
2018-11-23T13:57:02.720Z,36.53
2018-11-23T13:59:31.230Z,37.53
2018-11-23T14:01:59.800Z,37.60
2018-11-23T14:04:28.339Z,35.50
2018-11-23T14:06:57.006Z,43.30
2018-11-23T14:09:25.535Z,35.90
2018-11-23T14:11:54.074Z,40.30
2018-11-23T14:14:22.808Z,37.23
2018-11-23T14:16:51.317Z,37.93
2018-11-23T14:19:19.834Z,39.20
2018-11-23T14:21:48.361Z,40.50
2018-11-23T14:24:16.889Z,34.67
2018-11-23T14:26:45.465Z,36.37
2018-11-23T14:29:14.031Z,37.33
2018-11-23T14:31:42.661Z,38.00
2018-11-23T14:34:12.178Z,38.47
2018-11-23T14:36:40.790Z,37.67
2018-11-23T14:39:10.189Z,38.13
2018-11-23T14:41:38.886Z,42.23
2018-11-23T14:44:07.428Z,38.37
2018-11-23T14:46:36.006Z,41.50
2018-11-23T14:49:04.648Z,38.57
2018-11-23T14:51:33.296Z,39.00
2018-11-23T14:54:01.886Z,36.27
2018-11-23T14:56:30.430Z,37.90
2018-11-23T14:58:58.978Z,40.60
2018-11-23T15:01:27.512Z,38.60
2018-11-23T15:03:56.058Z,42.30
2018-11-23T15:06:24.684Z,40.47
2018-11-23T15:08:53.246Z,41.50
2018-11-23T15:11:21.778Z,38.40
2018-11-23T15:13:50.352Z,39.93
2018-11-23T15:16:18.870Z,42.43
2018-11-23T15:18:47.414Z,40.50
2018-11-23T15:21:16.010Z,39.17
2018-11-23T15:23:44.698Z,41.80
2018-11-23T15:26:13.230Z,39.60
2018-11-23T15:28:41.888Z,41.40
2018-11-23T15:31:10.517Z,41.60
2018-11-23T15:33:39.029Z,39.43
2018-11-23T15:36:07.569Z,38.70
2018-11-23T15:38:36.109Z,40.20
2018-11-23T15:41:04.729Z,40.87
2018-11-23T15:43:33.337Z,39.67
2018-11-23T15:46:01.873Z,40.63
2018-11-23T15:48:30.398Z,39.10
2018-11-23T15:51:03.307Z,41.30
2018-11-23T15:53:31.949Z,41.37
2018-11-23T15:56:00.578Z,40.17
2018-11-23T15:58:29.605Z,41.00
2018-11-23T16:00:58.167Z,40.30
2018-11-23T16:03:26.704Z,41.73
2018-11-23T16:05:55.307Z,41.87
2018-11-23T16:08:23.875Z,40.80
2018-11-23T16:10:52.401Z,41.93
2018-11-23T16:13:21.094Z,44.33
2018-11-23T16:15:49.646Z,38.63
2018-11-23T16:18:18.349Z,41.30
2018-11-23T16:20:47.398Z,40.53
2018-11-23T16:23:18.443Z,41.33
2018-11-23T16:25:47.637Z,38.53
2018-11-23T16:28:16.156Z,40.17
2018-11-23T16:30:46.243Z,43.13
2018-11-23T16:33:16.660Z,45.00
2018-11-23T16:35:45.461Z,46.17
2018-11-23T16:38:16.606Z,45.00
2018-11-23T16:40:47.290Z,50.37
2018-11-23T16:43:16.908Z,44.63
2018-11-23T16:45:45.997Z,42.00
2018-11-23T16:48:15.238Z,44.33
2018-11-23T16:50:44.386Z,44.93
2018-11-23T16:53:13.138Z,41.77
2018-11-23T16:55:41.727Z,46.00
2018-11-23T16:58:11.645Z,47.30
2018-11-23T17:00:41.641Z,43.40
2018-11-23T17:03:12.399Z,44.30
2018-11-23T17:05:42.362Z,45.10
2018-11-23T17:08:11.301Z,39.67
2018-11-23T17:10:39.974Z,39.10
2018-11-23T17:13:08.835Z,47.27
2018-11-23T17:15:37.394Z,48.03
2018-11-23T17:18:06.548Z,40.77
2018-11-23T17:20:35.542Z,39.80
2018-11-23T17:23:05.114Z,40.27
2018-11-23T17:25:33.937Z,38.27
2018-11-23T17:28:04.162Z,41.27
2018-11-23T17:30:33.478Z,35.37
2018-11-23T17:33:02.042Z,39.50
2018-11-23T17:35:30.856Z,36.20
2018-11-23T17:37:59.430Z,36.90
2018-11-23T17:40:29.645Z,35.13
2018-11-23T17:42:58.582Z,33.07
2018-11-23T17:45:29.522Z,36.90
2018-11-23T17:47:58.306Z,34.33
2018-11-23T17:50:28.382Z,34.33
2018-11-23T17:52:57.676Z,33.47
2018-11-23T17:55:26.293Z,37.20
2018-11-23T17:57:55.566Z,38.33
2018-11-23T18:00:28.715Z,39.97
2018-11-23T18:02:58.614Z,38.50
2018-11-23T18:05:27.888Z,38.63
2018-11-23T18:07:56.670Z,38.07
2018-11-23T18:10:26.692Z,38.97
2018-11-23T18:12:56.214Z,37.27
2018-11-23T18:15:27.293Z,39.97
2018-11-23T18:17:57.172Z,39.10
2018-11-23T18:20:26.756Z,37.70
2018-11-23T18:22:56.394Z,39.50
2018-11-23T18:25:26.490Z,37.87
2018-11-23T18:28:00.320Z,36.27
2018-11-23T18:30:31.361Z,35.87
2018-11-23T18:33:00.799Z,39.03
2018-11-23T18:35:29.359Z,33.17
2018-11-23T18:37:57.900Z,38.73
2018-11-23T18:40:26.430Z,35.07
2018-11-23T18:42:54.965Z,34.90
2018-11-23T18:45:23.520Z,34.17
2018-11-23T18:47:52.978Z,35.50
2018-11-23T18:50:21.588Z,36.40
2018-11-23T18:52:50.143Z,36.23
2018-11-23T18:55:18.714Z,35.40
2018-11-23T18:57:47.312Z,33.20
2018-11-23T19:00:16.503Z,36.40
2018-11-23T19:02:46.458Z,34.33
2018-11-23T19:05:21.625Z,35.70
2018-11-23T19:07:50.186Z,33.43
2018-11-23T19:10:18.756Z,37.37
2018-11-23T19:12:47.358Z,36.40
2018-11-23T19:15:17.522Z,30.17
2018-11-23T19:17:45.707Z,37.47
2018-11-23T19:20:18.588Z,32.93
2018-11-23T19:22:50.370Z,34.50
2018-11-23T19:25:18.998Z,34.87
2018-11-23T19:27:47.570Z,32.87
2018-11-23T19:30:17.454Z,33.20
2018-11-23T19:32:46.046Z,32.00
2018-11-23T19:35:14.760Z,30.03
2018-11-23T19:37:43.364Z,31.73
2018-11-23T19:40:13.989Z,30.57
2018-11-23T19:42:43.241Z,31.30
2018-11-23T19:45:14.055Z,29.83
2018-11-23T19:47:42.768Z,29.17
2018-11-23T19:50:12.857Z,32.17
2018-11-23T19:52:41.757Z,27.77
2018-11-23T19:55:11.332Z,27.00
2018-11-23T19:57:39.912Z,27.53
2018-11-23T20:00:30.035Z,31.37
2018-11-23T20:02:59.549Z,25.90
2018-11-23T20:05:28.149Z,32.17
2018-11-23T20:07:57.452Z,26.13
2018-11-23T20:10:26.376Z,28.20
2018-11-23T20:12:57.220Z,32.27
2018-11-23T20:15:25.850Z,23.93
2018-11-23T20:17:54.500Z,28.10
2018-11-23T20:20:23.081Z,29.73
2018-11-23T20:22:51.851Z,27.47
2018-11-23T20:25:21.156Z,25.33
2018-11-23T20:27:50.923Z,29.33
2018-11-23T20:30:20.246Z,25.17
2018-11-23T20:32:48.916Z,26.33
2018-11-23T20:35:20.381Z,28.33
2018-11-23T20:37:48.970Z,26.63
2018-11-23T20:40:19.820Z,28.30
2018-11-23T20:42:48.391Z,23.93
2018-11-23T20:45:16.988Z,25.73
2018-11-23T20:47:45.631Z,24.03
2018-11-23T20:50:15.206Z,25.83
2018-11-23T20:52:43.803Z,26.63
2018-11-23T20:55:14.788Z,27.17
2018-11-23T20:57:43.379Z,25.70
2018-11-23T21:00:15.175Z,24.47
2018-11-23T21:02:44.224Z,22.03
2018-11-23T21:05:13.731Z,21.60
2018-11-23T21:07:42.240Z,22.27
2018-11-23T21:10:19.618Z,23.03
2018-11-23T21:12:40.768Z,24.67
2018-11-23T21:15:16.799Z,25.37
2018-11-23T21:17:45.410Z,22.10
2018-11-23T21:20:13.936Z,25.23
2018-11-23T21:22:42.506Z,22.63
2018-11-23T21:25:11.418Z,21.90
2018-11-23T21:27:39.981Z,23.93
2018-11-23T21:30:13.188Z,23.33
2018-11-23T21:32:41.754Z,25.97
2018-11-23T21:35:11.253Z,22.87
2018-11-23T21:37:39.772Z,24.53
2018-11-23T21:40:14.759Z,24.10
2018-11-23T21:42:43.350Z,21.03
2018-11-23T21:45:16.208Z,24.30
2018-11-23T21:47:44.792Z,23.83
2018-11-23T21:50:15.550Z,20.30
2018-11-23T21:52:44.108Z,23.57
2018-11-23T21:55:15.055Z,24.57
2018-11-23T21:57:43.647Z,22.97
2018-11-23T22:00:13.673Z,21.10
2018-11-23T22:02:42.340Z,26.43
2018-11-23T22:05:11.425Z,22.47
2018-11-23T22:07:40.058Z,23.70
2018-11-23T22:10:12.763Z,24.93
2018-11-23T22:12:41.356Z,25.77
2018-11-23T22:15:11.595Z,25.47
2018-11-23T22:17:40.160Z,26.30
2018-11-23T22:20:12.183Z,26.03
2018-11-23T22:22:41.063Z,25.23
2018-11-23T22:25:11.967Z,27.17
2018-11-23T22:27:40.621Z,27.57
2018-11-23T22:30:15.346Z,24.43
2018-11-23T22:32:44.092Z,24.20
2018-11-23T22:35:13.509Z,25.10
2018-11-23T22:37:42.293Z,25.50
2018-11-23T22:40:13.142Z,25.30
2018-11-23T22:42:43.107Z,25.83
2018-11-23T22:45:12.990Z,22.23
2018-11-23T22:47:41.587Z,23.50
2018-11-23T22:50:14.161Z,21.37
2018-11-23T22:52:42.960Z,23.07
2018-11-23T22:55:12.766Z,26.23
2018-11-23T22:57:41.547Z,23.73
2018-11-23T23:00:28.588Z,25.10
2018-11-23T23:02:57.523Z,27.20
2018-11-23T23:05:26.114Z,28.07
2018-11-23T23:07:54.802Z,26.27
2018-11-23T23:10:23.407Z,31.07
2018-11-23T23:12:52.232Z,24.93
2018-11-23T23:15:20.806Z,25.40
2018-11-23T23:17:49.357Z,29.40
2018-11-23T23:20:20.051Z,24.07
2018-11-23T23:22:48.621Z,27.73
2018-11-23T23:25:17.306Z,27.70
2018-11-23T23:27:45.907Z,23.90
2018-11-23T23:30:15.736Z,26.90
2018-11-23T23:32:44.912Z,25.73
2018-11-23T23:35:14.444Z,24.97
2018-11-23T23:37:43.134Z,29.07
2018-11-23T23:40:13.157Z,24.40
2018-11-23T23:42:44.388Z,27.13
2018-11-23T23:45:14.919Z,28.87
2018-11-23T23:47:43.644Z,27.13
2018-11-23T23:50:15.719Z,25.23
2018-11-23T23:52:44.575Z,32.67
2018-11-23T23:55:13.208Z,30.60
2018-11-23T23:57:43.221Z,26.67
